createdAt,value
2024-05-09T00:00:00.874Z,78.79
2024-05-09T00:01:00.924Z,79.17
2024-05-09T00:02:00.917Z,79.15
2024-05-09T00:03:00.932Z,79.18
2024-05-09T00:04:00.994Z,78.93
2024-05-09T00:05:00.991Z,78.64
2024-05-09T00:06:01.041Z,78.57
2024-05-09T00:07:00.882Z,78.69
2024-05-09T00:08:01.135Z,78.74
2024-05-09T00:09:00.885Z,78.74
2024-05-09T00:10:00.905Z,79.09
2024-05-09T00:11:00.962Z,79.53
2024-05-09T00:12:01.071Z,79.91
2024-05-09T00:13:00.886Z,80.23
2024-05-09T00:14:00.995Z,80.57
2024-05-09T00:15:00.892Z,80.65
2024-05-09T00:16:00.904Z,80.70
2024-05-09T00:17:00.975Z,80.61
2024-05-09T00:18:01.414Z,80.50
2024-05-09T00:19:00.966Z,80.96
2024-05-09T00:20:00.938Z,81.06
2024-05-09T00:21:01.059Z,81.02
2024-05-09T00:22:00.925Z,80.73
2024-05-09T00:23:00.897Z,80.92
2024-05-09T00:24:00.908Z,81.05
2024-05-09T00:25:00.897Z,80.74
2024-05-09T00:26:00.932Z,80.55
2024-05-09T00:27:00.936Z,80.57
2024-05-09T00:28:01.641Z,80.24
2024-05-09T00:29:00.921Z,79.97
2024-05-09T00:30:00.886Z,79.83
2024-05-09T00:31:00.889Z,79.54
2024-05-09T00:32:01.091Z,79.18
2024-05-09T00:33:01.100Z,79.16
2024-05-09T00:34:01.353Z,78.89
2024-05-09T00:35:01.025Z,78.63
2024-05-09T00:36:00.954Z,78.88
2024-05-09T00:37:00.969Z,78.85
2024-05-09T00:38:01.320Z,78.75
2024-05-09T00:39:00.902Z,79.00
2024-05-09T00:40:00.927Z,79.28
2024-05-09T00:41:01.058Z,79.62
2024-05-09T00:42:00.934Z,79.34
2024-05-09T00:43:00.929Z,78.99
2024-05-09T00:44:00.961Z,78.95
2024-05-09T00:45:00.925Z,79.03
2024-05-09T00:46:00.934Z,78.92
2024-05-09T00:47:01.088Z,79.09
2024-05-09T00:48:01.452Z,79.16
2024-05-09T00:49:01.283Z,78.88
2024-05-09T00:50:01.181Z,79.15
2024-05-09T00:51:01.268Z,79.14
2024-05-09T00:52:01.230Z,79.06
2024-05-09T00:53:01.280Z,79.32
2024-05-09T00:54:01.279Z,80.02
2024-05-09T00:55:01.279Z,80.31
2024-05-09T00:56:01.319Z,80.08
2024-05-09T00:57:01.334Z,80.13
2024-05-09T00:58:01.347Z,80.14
2024-05-09T00:59:01.493Z,80.08
2024-05-09T01:00:01.433Z,79.80
2024-05-09T01:01:01.540Z,80.47
2024-05-09T01:02:01.628Z,80.91
2024-05-09T01:03:01.715Z,81.13
2024-05-09T01:04:01.618Z,80.95
2024-05-09T01:05:01.685Z,80.85
2024-05-09T01:06:01.638Z,80.55
2024-05-09T01:07:01.614Z,80.04
2024-05-09T01:08:01.799Z,79.89
2024-05-09T01:09:01.672Z,79.78
2024-05-09T01:10:01.728Z,79.77
2024-05-09T01:11:01.949Z,79.69
2024-05-09T01:12:01.928Z,79.74
2024-05-09T01:13:01.874Z,80.05
2024-05-09T01:14:01.915Z,80.14
2024-05-09T01:15:01.885Z,80.31
2024-05-09T01:16:01.939Z,80.15
2024-05-09T01:17:02.034Z,80.45
2024-05-09T01:18:02.448Z,80.32
2024-05-09T01:19:02.161Z,80.14
2024-05-09T01:20:02.266Z,79.90
2024-05-09T01:21:02.196Z,80.29
2024-05-09T01:22:02.217Z,80.64
2024-05-09T01:23:02.330Z,80.60
2024-05-09T01:24:02.233Z,80.09
2024-05-09T01:25:02.287Z,79.84
2024-05-09T01:26:02.357Z,79.68
2024-05-09T01:27:02.353Z,79.50
2024-05-09T01:28:02.417Z,79.52
2024-05-09T01:29:02.426Z,79.64
2024-05-09T01:30:04.016Z,80.20
2024-05-09T01:31:04.218Z,79.94
2024-05-09T01:32:02.558Z,79.97
2024-05-09T01:33:02.624Z,80.19
2024-05-09T01:34:02.474Z,79.71
2024-05-09T01:35:02.531Z,79.13
2024-05-09T01:36:02.443Z,78.87
2024-05-09T01:37:02.492Z,78.50
2024-05-09T01:38:02.629Z,78.46
2024-05-09T01:39:02.455Z,78.22
2024-05-09T01:40:02.463Z,78.04
2024-05-09T01:41:02.520Z,78.12
2024-05-09T01:42:02.471Z,78.01
2024-05-09T01:43:02.473Z,78.19
2024-05-09T01:44:02.495Z,78.13
2024-05-09T01:45:02.456Z,78.32
2024-05-09T01:46:02.501Z,78.36
2024-05-09T01:47:02.592Z,78.43
2024-05-09T01:48:03.001Z,78.51
2024-05-09T01:49:02.621Z,78.73
2024-05-09T01:50:03.317Z,78.76
2024-05-09T01:51:02.626Z,78.59
2024-05-09T01:52:02.642Z,78.31
2024-05-09T01:53:02.710Z,78.30
2024-05-09T01:54:02.634Z,78.47
2024-05-09T01:55:05.839Z,78.27
2024-05-09T01:56:02.708Z,78.46
2024-05-09T01:57:02.671Z,78.32
2024-05-09T01:58:02.665Z,78.21
2024-05-09T01:59:02.675Z,77.79
2024-05-09T02:00:02.999Z,77.98
2024-05-09T02:01:02.697Z,78.38
2024-05-09T02:02:02.834Z,78.48
2024-05-09T02:03:02.908Z,78.31
2024-05-09T02:04:02.993Z,78.03
2024-05-09T02:05:02.829Z,77.94
2024-05-09T02:06:02.831Z,77.98
2024-05-09T02:07:02.671Z,77.60
2024-05-09T02:08:02.762Z,77.68
2024-05-09T02:09:02.692Z,77.67
2024-05-09T02:10:06.483Z,78.12
2024-05-09T02:11:03.727Z,78.35
2024-05-09T02:12:02.842Z,78.39
2024-05-09T02:13:02.721Z,78.24
2024-05-09T02:14:02.777Z,77.91
2024-05-09T02:15:02.687Z,77.72
2024-05-09T02:16:02.678Z,77.75
2024-05-09T02:17:02.747Z,77.59
2024-05-09T02:18:02.806Z,77.79
2024-05-09T02:19:02.781Z,78.24
2024-05-09T02:20:02.910Z,78.53
2024-05-09T02:21:02.802Z,78.07
2024-05-09T02:22:02.714Z,78.04
2024-05-09T02:23:02.975Z,78.30
2024-05-09T02:24:02.778Z,78.21
2024-05-09T02:25:02.804Z,77.99
2024-05-09T02:26:02.892Z,77.84
2024-05-09T02:27:02.867Z,77.52
2024-05-09T02:28:02.982Z,77.26
2024-05-09T02:29:03.005Z,76.99
2024-05-09T02:30:04.674Z,76.35
2024-05-09T02:31:03.040Z,76.30
2024-05-09T02:32:03.781Z,76.70
2024-05-09T02:33:03.266Z,77.58
2024-05-09T02:34:03.348Z,78.19
2024-05-09T02:35:03.210Z,77.90
2024-05-09T02:36:03.103Z,77.77
2024-05-09T02:37:03.155Z,77.84
2024-05-09T02:38:03.327Z,77.39
2024-05-09T02:39:03.094Z,77.58
2024-05-09T02:40:03.475Z,77.84
2024-05-09T02:41:03.081Z,77.65
2024-05-09T02:42:03.087Z,77.30
2024-05-09T02:43:03.078Z,76.88
2024-05-09T02:44:03.142Z,76.45
2024-05-09T02:45:03.079Z,76.17
2024-05-09T02:46:03.079Z,75.64
2024-05-09T02:47:03.078Z,75.53
2024-05-09T02:48:03.432Z,75.66
2024-05-09T02:49:03.163Z,75.62
2024-05-09T02:50:04.633Z,75.53
2024-05-09T02:51:03.267Z,75.31
2024-05-09T02:52:03.150Z,75.44
2024-05-09T02:53:03.167Z,75.38
2024-05-09T02:54:03.134Z,75.50
2024-05-09T02:55:03.254Z,75.69
2024-05-09T02:56:03.180Z,76.03
2024-05-09T02:57:03.150Z,76.59
2024-05-09T02:58:03.154Z,76.60
2024-05-09T02:59:03.231Z,76.67
2024-05-09T03:00:06.200Z,76.27
2024-05-09T03:01:03.237Z,76.28
2024-05-09T03:02:03.273Z,75.94
2024-05-09T03:03:03.334Z,76.19
2024-05-09T03:04:03.305Z,76.08
2024-05-09T03:05:03.202Z,76.02
2024-05-09T03:06:03.176Z,76.25
2024-05-09T03:07:03.169Z,76.41
2024-05-09T03:08:03.248Z,77.01
2024-05-09T03:09:03.131Z,76.80
2024-05-09T03:10:03.488Z,76.88
2024-05-09T03:11:03.189Z,77.16
2024-05-09T03:12:03.462Z,77.52
2024-05-09T03:13:03.200Z,77.50
2024-05-09T03:14:03.196Z,77.09
2024-05-09T03:15:03.192Z,77.34
2024-05-09T03:16:03.178Z,77.32
2024-05-09T03:17:03.279Z,77.12
2024-05-09T03:18:03.608Z,77.11
2024-05-09T03:19:03.256Z,77.06
2024-05-09T03:20:05.121Z,77.25
2024-05-09T03:21:03.338Z,77.19
2024-05-09T03:22:03.175Z,77.01
2024-05-09T03:23:03.733Z,76.89
2024-05-09T03:24:03.191Z,77.00
2024-05-09T03:25:03.203Z,77.13
2024-05-09T03:26:03.232Z,77.27
2024-05-09T03:27:03.197Z,77.79
2024-05-09T03:28:03.220Z,77.97
2024-05-09T03:29:03.312Z,77.96
2024-05-09T03:30:05.497Z,77.96
2024-05-09T03:31:03.189Z,78.01
2024-05-09T03:32:03.361Z,78.26
2024-05-09T03:33:04.404Z,78.24
2024-05-09T03:34:03.451Z,78.14
2024-05-09T03:35:03.257Z,78.38
2024-05-09T03:36:03.219Z,78.29
2024-05-09T03:37:03.254Z,78.01
2024-05-09T03:38:03.357Z,78.00
2024-05-09T03:39:03.203Z,78.11
2024-05-09T03:40:05.604Z,78.03
2024-05-09T03:41:03.264Z,78.03
2024-05-09T03:42:03.245Z,77.88
2024-05-09T03:43:03.264Z,77.62
2024-05-09T03:44:03.245Z,77.44
2024-05-09T03:45:03.203Z,77.21
2024-05-09T03:46:03.227Z,77.09
2024-05-09T03:47:03.247Z,76.86
2024-05-09T03:48:03.425Z,77.01
2024-05-09T03:49:03.361Z,76.71
2024-05-09T03:50:05.639Z,76.89
2024-05-09T03:51:03.434Z,77.13
2024-05-09T03:52:03.467Z,77.06
2024-05-09T03:53:03.615Z,77.02
2024-05-09T03:54:03.549Z,77.08
2024-05-09T03:55:03.592Z,77.38
2024-05-09T03:56:03.694Z,77.67
2024-05-09T03:57:03.721Z,77.47
2024-05-09T03:58:03.762Z,77.85
2024-05-09T03:59:03.944Z,78.23
2024-05-09T04:00:05.500Z,78.05
2024-05-09T04:01:03.832Z,78.02
2024-05-09T04:02:04.054Z,78.15
2024-05-09T04:03:04.328Z,77.97
2024-05-09T04:04:03.978Z,78.02
2024-05-09T04:05:03.982Z,78.21
2024-05-09T04:06:03.997Z,78.03
2024-05-09T04:07:04.038Z,77.68
2024-05-09T04:08:04.157Z,77.29
2024-05-09T04:09:04.189Z,77.41
2024-05-09T04:10:05.412Z,77.40
2024-05-09T04:11:04.350Z,77.40
2024-05-09T04:12:04.251Z,77.52
2024-05-09T04:13:04.531Z,77.81
2024-05-09T04:14:04.214Z,78.01
2024-05-09T04:15:04.163Z,78.14
2024-05-09T04:16:04.196Z,78.47
2024-05-09T04:17:04.211Z,78.47
2024-05-09T04:18:04.354Z,78.30
2024-05-09T04:19:04.267Z,78.39
2024-05-09T04:20:05.145Z,78.71
2024-05-09T04:21:04.808Z,78.75
2024-05-09T04:22:04.170Z,79.00
2024-05-09T04:23:04.255Z,78.57
2024-05-09T04:24:04.186Z,78.25
2024-05-09T04:25:04.229Z,78.28
2024-05-09T04:26:04.342Z,78.01
2024-05-09T04:27:04.277Z,77.98
2024-05-09T04:28:04.355Z,77.91
2024-05-09T04:29:04.408Z,77.52
2024-05-09T04:30:06.165Z,77.49
2024-05-09T04:31:04.336Z,77.37
2024-05-09T04:32:04.427Z,77.37
2024-05-09T04:33:04.574Z,77.37
2024-05-09T04:34:04.665Z,77.33
2024-05-09T04:35:04.449Z,77.03
2024-05-09T04:36:04.502Z,76.87
2024-05-09T04:37:04.315Z,77.15
2024-05-09T04:38:04.480Z,77.30
2024-05-09T04:39:04.369Z,78.35
2024-05-09T04:40:06.997Z,79.14
2024-05-09T04:41:04.414Z,79.31
2024-05-09T04:42:04.356Z,78.75
2024-05-09T04:43:04.391Z,78.28
2024-05-09T04:44:12.277Z,78.04
2024-05-09T04:45:12.186Z,77.83
2024-05-09T04:46:12.217Z,77.77
2024-05-09T04:47:12.351Z,77.62
2024-05-09T04:48:12.494Z,77.26
2024-05-09T04:49:12.353Z,77.37
2024-05-09T04:50:20.996Z,77.25
2024-05-09T04:51:13.319Z,77.19
2024-05-09T04:52:12.251Z,76.81
2024-05-09T04:53:12.339Z,76.84
2024-05-09T04:54:25.757Z,76.58
2024-05-09T04:55:13.299Z,75.85
2024-05-09T04:56:12.338Z,75.95
2024-05-09T04:57:12.282Z,76.23
2024-05-09T04:58:12.362Z,76.13
2024-05-09T04:59:12.370Z,76.27
2024-05-09T05:00:14.976Z,75.92
2024-05-09T05:01:13.324Z,76.11
2024-05-09T05:02:12.341Z,76.19
2024-05-09T05:03:14.872Z,76.03
2024-05-09T05:04:12.375Z,76.33
2024-05-09T05:05:12.438Z,76.71
2024-05-09T05:06:12.284Z,77.02
2024-05-09T05:07:12.290Z,77.21
2024-05-09T05:08:12.765Z,77.53
2024-05-09T05:09:12.291Z,77.70
2024-05-09T05:10:21.325Z,77.70
2024-05-09T05:11:13.518Z,77.47
2024-05-09T05:12:12.532Z,77.35
2024-05-09T05:13:12.317Z,77.72
2024-05-09T05:14:12.338Z,77.92
2024-05-09T05:15:12.301Z,78.12
2024-05-09T05:16:12.292Z,78.04
2024-05-09T05:17:12.347Z,77.95
2024-05-09T05:18:12.421Z,77.51
2024-05-09T05:19:16.017Z,77.29
2024-05-09T05:20:17.852Z,77.47
2024-05-09T05:21:13.373Z,77.62
2024-05-09T05:22:12.300Z,77.96
2024-05-09T05:23:12.464Z,78.21
2024-05-09T05:24:12.314Z,78.38
2024-05-09T05:25:12.328Z,78.31
2024-05-09T05:26:12.444Z,78.01
2024-05-09T05:27:12.330Z,77.39
2024-05-09T05:28:12.319Z,77.31
2024-05-09T05:29:12.468Z,76.85
2024-05-09T05:31:12.351Z,76.94
2024-05-09T05:32:12.516Z,76.68
2024-05-09T05:33:12.688Z,76.52
2024-05-09T05:34:12.409Z,76.66
2024-05-09T05:35:12.488Z,76.36
2024-05-09T05:36:12.572Z,75.94
2024-05-09T05:37:12.542Z,76.03
2024-05-09T05:38:12.586Z,75.47
2024-05-09T05:39:12.572Z,75.61
2024-05-09T05:40:20.927Z,76.38
2024-05-09T05:41:13.664Z,76.69
2024-05-09T05:42:12.587Z,76.79
2024-05-09T05:43:12.626Z,76.89
2024-05-09T05:44:12.618Z,76.35
2024-05-09T05:45:12.597Z,76.16
2024-05-09T05:46:12.608Z,76.74
2024-05-09T05:47:12.734Z,77.15
2024-05-09T05:48:12.863Z,77.06
2024-05-09T05:49:12.842Z,76.36
2024-05-09T05:50:23.634Z,75.88
2024-05-09T05:51:13.869Z,75.31
2024-05-09T05:52:12.628Z,74.73
2024-05-09T05:53:12.677Z,74.17
2024-05-09T05:54:12.606Z,74.22
2024-05-09T05:55:12.636Z,75.15
2024-05-09T05:56:12.690Z,75.21
2024-05-09T05:57:12.616Z,75.14
2024-05-09T05:58:12.752Z,74.87
2024-05-09T05:59:15.045Z,74.60
2024-05-09T06:01:12.691Z,74.56
2024-05-09T06:02:12.767Z,74.95
2024-05-09T06:03:13.311Z,75.75
2024-05-09T06:04:12.770Z,76.30
2024-05-09T06:05:12.797Z,75.80
2024-05-09T06:06:12.756Z,76.05
2024-05-09T06:07:12.743Z,76.16
2024-05-09T06:08:12.971Z,75.57
2024-05-09T06:09:12.872Z,75.25
2024-05-09T06:10:17.645Z,74.53
2024-05-09T06:11:14.035Z,74.54
2024-05-09T06:12:13.011Z,73.70
2024-05-09T06:13:13.572Z,73.44
2024-05-09T06:14:12.979Z,73.43
2024-05-09T06:15:12.911Z,73.63
2024-05-09T06:16:12.856Z,74.49
2024-05-09T06:17:12.945Z,73.32
2024-05-09T06:18:13.281Z,73.37
2024-05-09T06:19:13.004Z,72.43
2024-05-09T06:20:20.090Z,72.17
2024-05-09T06:21:14.250Z,71.04
2024-05-09T06:22:12.903Z,70.25
2024-05-09T06:23:13.319Z,69.47
2024-05-09T06:24:12.907Z,69.76
2024-05-09T06:25:12.874Z,69.71
2024-05-09T06:26:12.963Z,68.38
2024-05-09T06:27:12.918Z,67.32
2024-05-09T06:28:12.950Z,67.20
2024-05-09T06:29:12.908Z,66.72
2024-05-09T06:30:24.869Z,66.76
2024-05-09T06:31:13.936Z,66.31
2024-05-09T06:32:13.017Z,65.78
2024-05-09T06:33:14.946Z,65.92
2024-05-09T06:34:12.983Z,66.58
2024-05-09T06:35:12.994Z,66.62
2024-05-09T06:36:12.938Z,66.50
2024-05-09T06:37:12.902Z,66.02
2024-05-09T06:38:13.054Z,66.42
2024-05-09T06:39:12.911Z,67.23
2024-05-09T06:40:17.374Z,67.17
2024-05-09T06:41:13.005Z,67.85
2024-05-09T06:42:12.933Z,68.32
2024-05-09T06:43:13.056Z,68.00
2024-05-09T06:44:13.025Z,68.10
2024-05-09T06:45:12.981Z,68.77
2024-05-09T06:46:12.956Z,68.32
2024-05-09T06:47:13.076Z,67.67
2024-05-09T06:48:13.199Z,67.41
2024-05-09T06:49:13.082Z,66.73
2024-05-09T06:50:20.357Z,65.89
2024-05-09T06:51:14.081Z,66.12
2024-05-09T06:52:12.942Z,65.35
2024-05-09T06:53:13.020Z,66.78
2024-05-09T06:54:12.957Z,66.23
2024-05-09T06:55:12.968Z,65.71
2024-05-09T06:56:13.010Z,66.28
2024-05-09T06:57:12.969Z,65.53
2024-05-09T06:58:13.020Z,65.66
2024-05-09T06:59:12.978Z,64.54
2024-05-09T07:00:19.101Z,64.83
2024-05-09T07:01:14.043Z,64.49
2024-05-09T07:02:13.024Z,64.35
2024-05-09T07:03:15.277Z,62.32
2024-05-09T07:04:13.116Z,62.99
2024-05-09T07:05:13.107Z,64.56
2024-05-09T07:06:13.024Z,64.09
2024-05-09T07:07:12.967Z,64.32
2024-05-09T07:08:13.149Z,64.72
2024-05-09T07:09:12.983Z,64.57
2024-05-09T07:10:21.513Z,64.54
2024-05-09T07:11:14.150Z,64.16
2024-05-09T07:12:13.073Z,63.93
2024-05-09T07:13:13.232Z,63.86
2024-05-09T07:14:13.020Z,62.73
2024-05-09T07:15:13.010Z,61.89
2024-05-09T07:16:13.018Z,61.71
2024-05-09T07:17:13.067Z,61.53
2024-05-09T07:18:13.698Z,60.19
2024-05-09T07:19:13.292Z,59.94
2024-05-09T07:20:19.964Z,60.49
2024-05-09T07:21:14.121Z,60.84
2024-05-09T07:22:13.024Z,60.53
2024-05-09T07:23:13.278Z,60.29
2024-05-09T07:24:12.993Z,59.61
2024-05-09T07:25:13.026Z,58.53
2024-05-09T07:26:13.077Z,57.54
2024-05-09T07:27:13.001Z,57.29
2024-05-09T07:28:13.042Z,56.44
2024-05-09T07:29:13.031Z,56.65
2024-05-09T07:30:19.908Z,55.92
2024-05-09T07:31:14.029Z,54.95
2024-05-09T07:32:13.079Z,54.64
2024-05-09T07:33:13.142Z,56.79
2024-05-09T07:34:13.140Z,58.95
2024-05-09T07:35:13.057Z,58.14
2024-05-09T07:36:13.045Z,58.25
2024-05-09T07:37:13.034Z,58.21
2024-05-09T07:38:13.132Z,59.12
2024-05-09T07:39:13.346Z,58.56
2024-05-09T07:40:21.261Z,58.10
2024-05-09T07:41:14.119Z,58.31
2024-05-09T07:42:13.085Z,57.10
2024-05-09T07:43:13.307Z,58.27
2024-05-09T07:44:13.101Z,60.14
2024-05-09T07:47:14.094Z,58.05
2024-05-09T07:48:28.860Z,58.20
2024-05-09T07:49:44.847Z,56.63
2024-05-09T07:53:29.304Z,55.19
2024-05-09T07:53:37.498Z,55.85
2024-05-09T07:54:14.192Z,56.07
2024-05-09T07:55:13.256Z,57.16
2024-05-09T07:56:13.832Z,56.97
2024-05-09T07:57:13.131Z,55.28
2024-05-09T07:58:13.083Z,55.36
2024-05-09T07:59:13.107Z,55.83
2024-05-09T08:00:17.318Z,57.16
2024-05-09T08:01:14.210Z,57.41
2024-05-09T08:02:13.466Z,56.38
2024-05-09T08:03:13.132Z,55.92
2024-05-09T08:04:13.170Z,56.51
2024-05-09T08:05:13.344Z,55.99
2024-05-09T08:06:13.109Z,55.81
2024-05-09T08:07:13.199Z,55.31
2024-05-09T08:08:13.108Z,54.47
2024-05-09T08:09:16.935Z,54.53
2024-05-09T08:10:18.721Z,57.19
2024-05-09T08:11:14.150Z,57.12
2024-05-09T08:12:13.086Z,57.22
2024-05-09T08:13:13.146Z,57.32
2024-05-09T08:14:13.088Z,56.89
2024-05-09T08:15:13.105Z,57.31
2024-05-09T08:16:13.143Z,56.23
2024-05-09T08:17:13.105Z,56.04
2024-05-09T08:18:13.299Z,58.09
2024-05-09T08:19:13.284Z,58.09
2024-05-09T08:21:13.130Z,57.00
2024-05-09T08:22:13.197Z,55.95
2024-05-09T08:23:13.106Z,55.46
2024-05-09T08:24:13.117Z,57.40
2024-05-09T08:25:14.114Z,57.20
2024-05-09T08:26:13.132Z,56.47
2024-05-09T08:27:13.142Z,55.99
2024-05-09T08:28:13.303Z,55.82
2024-05-09T08:29:13.122Z,55.19
2024-05-09T08:30:21.578Z,55.51
2024-05-09T08:31:14.211Z,55.49
2024-05-09T08:32:13.154Z,54.30
2024-05-09T08:33:13.189Z,54.61
2024-05-09T08:34:13.234Z,53.87
2024-05-09T08:35:13.108Z,52.87
2024-05-09T08:36:13.120Z,54.79
2024-05-09T08:37:19.706Z,55.46
2024-05-09T08:38:14.216Z,56.06
2024-05-09T08:39:13.134Z,58.23
2024-05-09T08:40:19.843Z,58.30
2024-05-09T08:41:14.164Z,57.47
2024-05-09T08:42:13.151Z,56.91
2024-05-09T08:43:13.398Z,56.56
2024-05-09T08:44:13.145Z,56.34
2024-05-09T08:45:13.148Z,55.38
2024-05-09T08:46:13.310Z,54.97
2024-05-09T08:47:13.162Z,55.43
2024-05-09T08:48:13.677Z,55.04
2024-05-09T08:49:13.237Z,54.97
2024-05-09T08:50:23.560Z,54.26
2024-05-09T08:51:14.199Z,52.75
2024-05-09T08:52:13.160Z,52.13
2024-05-09T08:53:13.162Z,52.70
2024-05-09T08:54:13.145Z,53.70
2024-05-09T08:55:13.212Z,52.40
2024-05-09T08:56:14.211Z,51.68
2024-05-09T08:57:13.163Z,51.80
2024-05-09T08:58:13.345Z,52.13
2024-05-09T08:59:13.138Z,51.24
2024-05-09T09:00:18.022Z,53.62
2024-05-09T09:01:14.209Z,54.81
2024-05-09T09:02:13.423Z,54.54
2024-05-09T09:03:13.172Z,53.59
2024-05-09T09:04:13.373Z,53.48
2024-05-09T09:05:13.265Z,54.31
2024-05-09T09:06:13.129Z,54.47
2024-05-09T09:07:13.300Z,54.23
2024-05-09T09:08:13.187Z,52.91
2024-05-09T09:09:13.166Z,51.87
2024-05-09T09:11:13.166Z,52.37
2024-05-09T09:12:13.162Z,52.60
2024-05-09T09:13:13.256Z,51.25
2024-05-09T09:14:13.230Z,49.43
2024-05-09T09:15:13.239Z,49.78
2024-05-09T09:16:13.316Z,49.44
2024-05-09T09:17:13.305Z,50.21
2024-05-09T09:18:13.460Z,53.26
2024-05-09T09:19:13.493Z,53.85
2024-05-09T09:20:16.608Z,52.70
2024-05-09T09:21:14.419Z,52.10
2024-05-09T09:22:13.476Z,51.04
2024-05-09T09:23:13.878Z,49.81
2024-05-09T09:24:13.412Z,48.56
2024-05-09T09:25:13.448Z,46.57
2024-05-09T09:26:13.469Z,44.89
2024-05-09T09:27:13.425Z,45.23
2024-05-09T09:28:13.643Z,45.99
2024-05-09T09:29:13.449Z,46.59
2024-05-09T09:30:27.656Z,46.21
2024-05-09T09:31:14.481Z,45.72
2024-05-09T09:32:13.424Z,46.41
2024-05-09T09:33:13.628Z,46.94
2024-05-09T09:34:13.531Z,46.01
2024-05-09T09:35:13.434Z,46.39
2024-05-09T09:36:13.512Z,47.21
2024-05-09T09:37:13.464Z,46.75
2024-05-09T09:38:13.452Z,46.22
2024-05-09T09:39:13.447Z,48.83
2024-05-09T09:40:15.430Z,49.08
2024-05-09T09:41:13.496Z,49.54
2024-05-09T09:42:13.432Z,48.14
2024-05-09T09:43:13.753Z,50.88
2024-05-09T09:44:13.426Z,49.98
2024-05-09T09:45:13.447Z,49.24
2024-05-09T09:46:13.608Z,49.34
2024-05-09T09:47:13.610Z,47.67
2024-05-09T09:48:13.708Z,47.41
2024-05-09T09:49:16.864Z,47.39
2024-05-09T09:50:16.994Z,47.63
2024-05-09T09:51:14.651Z,46.39
2024-05-09T09:52:13.881Z,46.93
2024-05-09T09:53:13.719Z,46.20
2024-05-09T09:54:13.653Z,46.12
2024-05-09T09:55:13.883Z,46.36
2024-05-09T09:56:13.672Z,48.92
2024-05-09T09:57:13.664Z,50.00
2024-05-09T09:58:14.535Z,49.06
2024-05-09T09:59:13.679Z,48.75
2024-05-09T10:00:17.435Z,49.11
2024-05-09T10:01:14.789Z,47.72
2024-05-09T10:02:13.856Z,48.32
2024-05-09T10:03:13.784Z,49.38
2024-05-09T10:04:13.729Z,48.58
2024-05-09T10:05:13.810Z,47.74
2024-05-09T10:06:13.703Z,46.96
2024-05-09T10:07:13.863Z,46.14
2024-05-09T10:08:13.696Z,45.60
2024-05-09T10:09:13.726Z,45.23
2024-05-09T10:10:16.357Z,45.76
2024-05-09T10:11:14.718Z,45.32
2024-05-09T10:12:13.730Z,45.45
2024-05-09T10:13:13.823Z,45.20
2024-05-09T10:14:13.697Z,45.18
2024-05-09T10:15:13.681Z,45.12
2024-05-09T10:16:13.758Z,46.31
2024-05-09T10:17:13.716Z,47.92
2024-05-09T10:18:13.998Z,48.13
2024-05-09T10:19:13.827Z,47.34
2024-05-09T10:20:21.351Z,46.11
2024-05-09T10:21:14.760Z,46.84
2024-05-09T10:22:13.759Z,47.34
2024-05-09T10:23:13.748Z,46.21
2024-05-09T10:24:13.715Z,45.12
2024-05-09T10:25:13.828Z,44.67
2024-05-09T10:26:13.708Z,44.91
2024-05-09T10:27:13.722Z,44.76
2024-05-09T10:28:13.830Z,44.40
2024-05-09T10:29:13.714Z,44.59
2024-05-09T10:30:21.261Z,44.37
2024-05-09T10:31:14.843Z,44.14
2024-05-09T10:32:13.749Z,43.78
2024-05-09T10:33:13.885Z,43.41
2024-05-09T10:34:13.943Z,42.53
2024-05-09T10:35:13.756Z,42.29
2024-05-09T10:36:13.741Z,42.27
2024-05-09T10:37:13.802Z,43.61
2024-05-09T10:38:13.762Z,43.45
2024-05-09T10:39:13.750Z,43.05
2024-05-09T10:40:20.299Z,42.31
2024-05-09T10:41:14.763Z,42.22
2024-05-09T10:42:13.745Z,41.45
2024-05-09T10:43:13.843Z,40.89
2024-05-09T10:44:13.736Z,40.28
2024-05-09T10:45:13.732Z,40.18
2024-05-09T10:46:13.866Z,40.17
2024-05-09T10:47:13.810Z,40.55
2024-05-09T10:48:14.399Z,42.21
2024-05-09T10:49:13.852Z,43.10
2024-05-09T10:51:13.765Z,43.92
2024-05-09T10:52:13.751Z,45.60
2024-05-09T10:53:13.776Z,47.22
2024-05-09T10:54:13.782Z,46.86
2024-05-09T10:55:13.943Z,46.02
2024-05-09T10:56:13.923Z,46.64
2024-05-09T10:57:13.925Z,46.72
2024-05-09T10:58:14.077Z,46.31
2024-05-09T10:59:14.046Z,47.88
2024-05-09T11:00:19.482Z,48.53
2024-05-09T11:01:15.182Z,47.97
2024-05-09T11:02:14.214Z,47.27
2024-05-09T11:03:14.164Z,45.94
2024-05-09T11:04:14.434Z,45.49
2024-05-09T11:05:14.311Z,44.77
2024-05-09T11:06:14.064Z,43.80
2024-05-09T11:07:14.088Z,42.93
2024-05-09T11:08:14.089Z,42.17
2024-05-09T11:09:14.082Z,42.00
2024-05-09T11:10:17.921Z,44.42
2024-05-09T11:11:15.164Z,46.38
2024-05-09T11:12:14.223Z,45.89
2024-05-09T11:13:14.247Z,44.98
2024-05-09T11:14:14.115Z,44.02
2024-05-09T11:15:14.121Z,45.42
2024-05-09T11:16:14.194Z,48.02
2024-05-09T11:17:14.164Z,48.49
2024-05-09T11:18:14.269Z,48.18
2024-05-09T11:19:14.319Z,47.59
2024-05-09T11:20:22.577Z,46.73
2024-05-09T11:21:15.099Z,45.94
2024-05-09T11:22:14.297Z,45.23
2024-05-09T11:23:14.150Z,44.43
2024-05-09T11:24:14.166Z,43.53
2024-05-09T11:25:14.235Z,43.23
2024-05-09T11:26:14.112Z,42.71
2024-05-09T11:27:14.105Z,42.84
2024-05-09T11:28:14.122Z,43.07
2024-05-09T11:29:17.058Z,43.53
2024-05-09T11:30:20.887Z,43.94
2024-05-09T11:31:15.227Z,43.81
2024-05-09T11:32:14.209Z,45.33
2024-05-09T11:33:14.268Z,45.21
2024-05-09T11:34:14.126Z,44.82
2024-05-09T11:35:14.158Z,45.28
2024-05-09T11:36:14.142Z,44.85
2024-05-09T11:37:14.263Z,43.70
2024-05-09T11:38:14.193Z,42.99
2024-05-09T11:39:14.149Z,42.27
2024-05-09T11:40:21.337Z,41.07
2024-05-09T11:41:15.120Z,41.03
2024-05-09T11:42:14.157Z,40.78
2024-05-09T11:43:14.206Z,40.63
2024-05-09T11:44:14.181Z,40.91
2024-05-09T11:45:14.159Z,41.71
2024-05-09T11:46:14.467Z,42.09
2024-05-09T11:47:14.406Z,41.49
2024-05-09T11:48:14.245Z,40.82
2024-05-09T11:49:14.331Z,42.81
2024-05-09T11:50:22.471Z,42.31
2024-05-09T11:51:15.159Z,42.17
2024-05-09T11:52:14.206Z,41.86
2024-05-09T11:53:14.171Z,41.43
2024-05-09T11:54:14.150Z,41.08
2024-05-09T11:55:14.393Z,41.10
2024-05-09T11:56:14.178Z,43.86
2024-05-09T11:57:14.183Z,42.18
2024-05-09T11:58:14.265Z,41.80
2024-05-09T11:59:14.169Z,41.63
2024-05-09T12:01:14.232Z,41.79
2024-05-09T12:02:14.469Z,41.21
2024-05-09T12:03:14.321Z,40.72
2024-05-09T12:04:14.420Z,41.28
2024-05-09T12:05:14.211Z,40.46
2024-05-09T12:06:14.244Z,40.55
2024-05-09T12:07:14.353Z,41.56
2024-05-09T12:08:14.365Z,41.39
2024-05-09T12:09:14.278Z,41.16
2024-05-09T12:10:19.729Z,40.98
2024-05-09T12:11:15.477Z,40.48
2024-05-09T12:12:14.393Z,40.66
2024-05-09T12:13:14.492Z,40.46
2024-05-09T12:14:14.389Z,39.60
2024-05-09T12:15:14.390Z,38.92
2024-05-09T12:16:14.535Z,39.47
2024-05-09T12:17:14.446Z,40.49
2024-05-09T12:18:14.516Z,41.51
2024-05-09T12:19:14.483Z,40.99
2024-05-09T12:20:21.421Z,41.05
2024-05-09T12:21:15.413Z,40.93
2024-05-09T12:22:14.662Z,41.44
2024-05-09T12:23:14.438Z,41.88
2024-05-09T12:24:17.773Z,42.03
2024-05-09T12:25:14.506Z,42.07
2024-05-09T12:26:14.375Z,41.50
2024-05-09T12:27:14.394Z,41.48
2024-05-09T12:28:14.567Z,42.13
2024-05-09T12:29:14.414Z,41.90
2024-05-09T12:30:24.449Z,41.26
2024-05-09T12:31:15.450Z,40.63
2024-05-09T12:32:14.566Z,39.82
2024-05-09T12:33:14.544Z,39.25
2024-05-09T12:34:14.532Z,40.07
2024-05-09T12:35:14.450Z,41.25
2024-05-09T12:36:14.426Z,39.74
2024-05-09T12:37:14.461Z,39.68
2024-05-09T12:38:14.395Z,39.38
2024-05-09T12:39:14.456Z,38.72
2024-05-09T12:40:22.856Z,38.33
2024-05-09T12:41:15.472Z,41.24
2024-05-09T12:42:26.322Z,43.09
2024-05-09T12:43:15.452Z,42.21
2024-05-09T12:44:14.442Z,41.95
2024-05-09T12:45:14.487Z,41.93
2024-05-09T12:46:14.499Z,40.66
2024-05-09T12:47:14.507Z,39.39
2024-05-09T12:48:14.509Z,40.01
2024-05-09T12:49:17.355Z,40.53
2024-05-09T12:50:22.318Z,41.67
2024-05-09T12:51:15.471Z,41.93
2024-05-09T12:52:14.627Z,40.94
2024-05-09T12:53:14.464Z,40.69
2024-05-09T12:54:14.474Z,40.28
2024-05-09T12:55:14.608Z,40.88
2024-05-09T12:56:14.438Z,40.92
2024-05-09T12:57:14.436Z,41.84
2024-05-09T12:58:14.642Z,43.08
2024-05-09T12:59:14.443Z,43.19
2024-05-09T13:00:23.441Z,44.22
2024-05-09T13:01:15.578Z,43.86
2024-05-09T13:02:14.599Z,41.62